Time;durP1;ratioP1;P1;durP2;ratioP2;P2;SDS_P1;SDS_P2;PMS_P1;PMS_P2;Temp;Humidity;BMP_temperature;BMP_pressure;BME280_temperature;BME280_humidity;BME280_pressure;Samples;Min_cycle;Max_cycle;Signal;HPM_P1;HPM_P2
2024/02/12 00:00:58;;;;;;;;;;;17.80;42.80;;;;;;1545329;75;785;-71
2024/02/12 00:03:00;;;;;;;;;;;17.70;42.80;;;;;;1539783;76;1136;-71
2024/02/12 00:05:05;;;;;;;;;;;17.70;42.90;;;;;;1543368;75;1945;-69
2024/02/12 00:07:05;;;;;;;;;;;17.80;42.80;;;;;;1544632;75;1621;-70
2024/02/12 00:09:07;;;;;;;;;;;17.70;42.80;;;;;;1548511;75;661;-70
2024/02/12 00:11:09;;;;;;;;;;;17.80;42.90;;;;;;1548790;76;607;-70
2024/02/12 00:13:11;;;;;;;;;;;17.70;42.80;;;;;;1543138;76;1177;-69
2024/02/12 00:15:13;;;;;;;;;;;17.80;42.90;;;;;;1545616;75;655;-71
2024/02/12 00:17:15;;;;;;;;;;;17.80;42.80;;;;;;1549490;76;749;-71
2024/02/12 00:19:17;;;;;;;;;;;17.80;42.80;;;;;;1552525;76;756;-69
2024/02/12 00:21:19;;;;;;;;;;;17.80;42.80;;;;;;1540247;76;736;-71
2024/02/12 00:23:21;;;;;;;;;;;17.70;42.80;;;;;;1537686;76;1180;-70
2024/02/12 00:25:24;;;;;;;;;;;17.70;42.80;;;;;;1540254;75;1931;-71
2024/02/12 00:27:27;;;;;;;;;;;17.70;42.80;;;;;;1558814;75;718;-71
2024/02/12 00:29:30;;;;;;;;;;;17.80;42.80;;;;;;1540223;75;800;-71
2024/02/12 00:31:32;;;;;;;;;;;17.80;42.80;;;;;;1545954;75;596;-70
2024/02/12 00:33:34;;;;;;;;;;;17.70;42.80;;;;;;1546272;75;1245;-71
2024/02/12 00:35:41;;;;;;;;;;;17.70;42.80;;;;;;1555731;75;810;-69
2024/02/12 00:37:40;;;;;;;;;;;17.70;42.80;;;;;;1543799;76;1193;-70
2024/02/12 00:39:42;;;;;;;;;;;17.80;42.80;;;;;;1543166;76;718;-69
2024/02/12 00:41:45;;;;;;;;;;;17.80;42.80;;;;;;1543907;76;668;-71
2024/02/12 00:43:47;;;;;;;;;;;17.80;42.80;;;;;;1551961;75;1162;-71
2024/02/12 00:45:49;;;;;;;;;;;17.70;42.80;;;;;;1542327;75;1939;-69
2024/02/12 00:47:53;;;;;;;;;;;17.70;42.80;;;;;;1539880;76;644;-71
2024/02/12 00:49:54;;;;;;;;;;;17.80;42.80;;;;;;1546868;75;1720;-69
2024/02/12 00:51:56;;;;;;;;;;;17.70;42.80;;;;;;1553413;76;815;-71
2024/02/12 00:53:58;;;;;;;;;;;17.80;42.80;;;;;;1554046;75;1146;-71
2024/02/12 00:56:02;;;;;;;;;;;17.70;42.80;;;;;;1546106;76;724;-71
2024/02/12 00:58:04;;;;;;;;;;;17.70;42.80;;;;;;1545373;76;1006;-68
2024/02/12 01:00:11;;;;;;;;;;;17.70;42.80;;;;;;1551113;76;769;-71
2024/02/12 01:02:10;;;;;;;;;;;17.80;42.80;;;;;;1550186;76;1103;-71
2024/02/12 01:04:12;;;;;;;;;;;17.70;42.80;;;;;;1559553;75;1146;-70
2024/02/12 01:06:16;;;;;;;;;;;17.80;42.80;;;;;;1550556;76;1958;-69
2024/02/12 01:08:18;;;;;;;;;;;17.80;42.80;;;;;;1544011;76;1461;-70
2024/02/12 01:10:20;;;;;;;;;;;17.80;42.80;;;;;;1549611;76;661;-71
2024/02/12 01:12:23;;;;;;;;;;;17.70;42.80;;;;;;1541801;76;705;-71
2024/02/12 01:14:26;;;;;;;;;;;17.70;42.80;;;;;;1549281;76;1119;-71
2024/02/12 01:16:29;;;;;;;;;;;17.70;42.80;;;;;;1544745;75;779;-71
2024/02/12 01:18:31;;;;;;;;;;;17.80;42.80;;;;;;1543335;75;655;-68
2024/02/12 01:20:34;;;;;;;;;;;17.70;42.80;;;;;;1545021;75;728;-70
2024/02/12 01:22:35;;;;;;;;;;;17.70;42.80;;;;;;1555119;76;768;-70
2024/02/12 01:24:37;;;;;;;;;;;17.70;42.80;;;;;;1540081;75;1949;-71
2024/02/12 01:26:40;;;;;;;;;;;17.80;42.80;;;;;;1551531;75;671;-71
2024/02/12 01:28:44;;;;;;;;;;;17.80;42.80;;;;;;1552269;75;714;-71
2024/02/12 01:30:46;;;;;;;;;;;17.70;42.80;;;;;;1554411;75;921;-70
2024/02/12 01:32:48;;;;;;;;;;;17.80;42.80;;;;;;1556606;75;1118;-71
2024/02/12 01:34:50;;;;;;;;;;;17.70;42.80;;;;;;1557092;75;767;-70
2024/02/12 01:36:54;;;;;;;;;;;17.80;42.80;;;;;;1553498;75;593;-69
2024/02/12 01:38:56;;;;;;;;;;;17.80;42.80;;;;;;1556343;75;1155;-71
2024/02/12 01:40:58;;;;;;;;;;;17.70;42.80;;;;;;1552119;75;759;-69
2024/02/12 01:42:59;;;;;;;;;;;17.80;42.80;;;;;;1550392;76;1186;-70
2024/02/12 01:45:11;;;;;;;;;;;17.80;42.80;;;;;;1553443;76;1942;-70
2024/02/12 01:47:08;;;;;;;;;;;17.70;42.80;;;;;;1545132;75;1055;-69
2024/02/12 01:49:10;;;;;;;;;;;17.70;42.80;;;;;;1553641;75;686;-71
2024/02/12 01:51:13;;;;;;;;;;;17.70;42.80;;;;;;1550419;75;704;-70
2024/02/12 01:53:16;;;;;;;;;;;17.70;42.80;;;;;;1545351;75;1146;-70
2024/02/12 01:55:24;;;;;;;;;;;17.70;42.80;;;;;;1537064;76;742;-69
2024/02/12 01:57:23;;;;;;;;;;;17.80;42.80;;;;;;1545965;75;1280;-71
2024/02/12 01:59:25;;;;;;;;;;;17.80;42.80;;;;;;1546411;76;692;-70
2024/02/12 02:01:29;;;;;;;;;;;17.70;42.80;;;;;;1543477;76;729;-70
2024/02/12 02:03:31;;;;;;;;;;;17.70;42.70;;;;;;1543560;76;2038;-70
2024/02/12 02:05:33;;;;;;;;;;;17.70;42.70;;;;;;1550922;76;1953;-70
2024/02/12 02:07:36;;;;;;;;;;;17.80;42.80;;;;;;1543081;75;1521;-70
2024/02/12 02:09:38;;;;;;;;;;;17.80;42.70;;;;;;1550171;75;648;-71
2024/02/12 02:11:40;;;;;;;;;;;17.80;42.70;;;;;;1546338;76;748;-71
2024/02/12 02:13:45;;;;;;;;;;;17.70;42.80;;;;;;1553902;75;1186;-70
2024/02/12 02:15:48;;;;;;;;;;;17.70;42.70;;;;;;1541648;75;801;-71
2024/02/12 02:17:50;;;;;;;;;;;17.70;42.80;;;;;;1548240;75;548;-69
2024/02/12 02:19:54;;;;;;;;;;;17.70;42.70;;;;;;1543489;75;863;-70
2024/02/12 02:21:56;;;;;;;;;;;17.80;42.80;;;;;;1552113;75;740;-69
2024/02/12 02:23:59;;;;;;;;;;;17.70;42.80;;;;;;1555018;75;1150;-71
2024/02/12 02:26:00;;;;;;;;;;;17.80;42.80;;;;;;1558692;76;1922;-71
2024/02/12 02:28:04;;;;;;;;;;;17.80;42.80;;;;;;1544378;76;714;-71
2024/02/12 02:30:11;;;;;;;;;;;17.70;42.80;;;;;;1542658;75;700;-71
2024/02/12 02:32:10;;;;;;;;;;;17.70;42.80;;;;;;1545800;76;1057;-71
2024/02/12 02:34:12;;;;;;;;;;;17.70;42.80;;;;;;1544688;75;1149;-71
2024/02/12 02:36:14;;;;;;;;;;;17.80;42.80;;;;;;1554112;75;728;-71
2024/02/12 02:38:16;;;;;;;;;;;17.70;42.80;;;;;;1538415;76;686;-69
2024/02/12 02:40:18;;;;;;;;;;;17.70;42.70;;;;;;1545233;74;738;-71
2024/02/12 02:42:19;;;;;;;;;;;17.80;42.80;;;;;;1542155;76;702;-71
2024/02/12 02:44:21;;;;;;;;;;;17.70;42.80;;;;;;1544661;76;1176;-70
2024/02/12 02:46:28;;;;;;;;;;;17.70;42.80;;;;;;1551745;75;1915;-70
2024/02/12 02:48:32;;;;;;;;;;;17.80;42.80;;;;;;1557959;75;974;-71
2024/02/12 02:50:32;;;;;;;;;;;17.70;42.70;;;;;;1547795;75;1124;-71
2024/02/12 02:52:34;;;;;;;;;;;17.70;42.70;;;;;;1548987;76;1060;-70
2024/02/12 02:54:36;;;;;;;;;;;17.70;42.80;;;;;;1554635;75;1114;-69
2024/02/12 02:56:38;;;;;;;;;;;17.70;42.70;;;;;;1551080;76;697;-71
2024/02/12 02:58:40;;;;;;;;;;;17.80;42.80;;;;;;1554730;75;807;-69
2024/02/12 03:00:41;;;;;;;;;;;17.70;42.70;;;;;;1538902;76;734;-69
2024/02/12 03:02:44;;;;;;;;;;;17.80;42.80;;;;;;1544914;76;668;-71
2024/02/12 03:04:45;;;;;;;;;;;17.70;42.70;;;;;;1537713;76;682;-71
2024/02/12 03:06:47;;;;;;;;;;;17.80;42.70;;;;;;1547404;76;1945;-71
2024/02/12 03:08:49;;;;;;;;;;;17.70;42.70;;;;;;1549106;76;672;-70
2024/02/12 03:10:53;;;;;;;;;;;17.70;42.70;;;;;;1545056;76;647;-70
2024/02/12 03:12:55;;;;;;;;;;;17.70;42.70;;;;;;1549981;75;1974;-70
2024/02/12 03:14:59;;;;;;;;;;;17.70;42.80;;;;;;1549891;75;758;-71
2024/02/12 03:17:01;;;;;;;;;;;17.80;42.80;;;;;;1544235;75;696;-71
2024/02/12 03:19:04;;;;;;;;;;;17.70;42.80;;;;;;1547635;75;809;-69
2024/02/12 03:21:06;;;;;;;;;;;17.80;42.80;;;;;;1543918;75;630;-71
2024/02/12 03:23:09;;;;;;;;;;;17.70;42.80;;;;;;1542541;76;1163;-70
2024/02/12 03:25:11;;;;;;;;;;;17.70;42.70;;;;;;1544533;75;1932;-70
2024/02/12 03:27:13;;;;;;;;;;;17.70;42.70;;;;;;1555571;76;652;-71
2024/02/12 03:29:15;;;;;;;;;;;17.80;42.80;;;;;;1546589;75;731;-70
2024/02/12 03:31:17;;;;;;;;;;;17.70;42.80;;;;;;1550422;75;775;-70
2024/02/12 03:33:19;;;;;;;;;;;17.70;42.70;;;;;;1545794;75;1182;-71
2024/02/12 03:35:21;;;;;;;;;;;17.80;42.70;;;;;;1544866;76;594;-71
2024/02/12 03:37:23;;;;;;;;;;;17.70;42.70;;;;;;1550192;76;774;-71
2024/02/12 03:39:26;;;;;;;;;;;17.70;42.70;;;;;;1535872;75;718;-69
2024/02/12 03:41:28;;;;;;;;;;;17.70;42.70;;;;;;1538300;75;717;-71
2024/02/12 03:43:30;;;;;;;;;;;17.70;42.70;;;;;;1545679;75;1162;-71
2024/02/12 03:45:34;;;;;;;;;;;17.80;42.80;;;;;;1550569;75;1928;-69
2024/02/12 03:47:39;;;;;;;;;;;17.80;42.70;;;;;;1549030;76;1090;-69
2024/02/12 04:01:21;;;;;;;;;;;17.70;42.70;;;;;;1547791;75;2039;-71
2024/02/12 04:03:23;;;;;;;;;;;17.80;42.70;;;;;;1544192;75;1129;-71
2024/02/12 04:05:25;;;;;;;;;;;17.70;42.70;;;;;;1549775;76;1955;-70
2024/02/12 04:07:27;;;;;;;;;;;17.70;42.70;;;;;;1555379;75;1461;-70
2024/02/12 04:09:29;;;;;;;;;;;17.70;42.70;;;;;;1556267;76;765;-71
2024/02/12 04:11:31;;;;;;;;;;;17.70;42.70;;;;;;1544486;76;732;-71
2024/02/12 04:13:33;;;;;;;;;;;17.70;42.70;;;;;;1552668;75;1123;-70
2024/02/12 04:15:38;;;;;;;;;;;17.80;42.80;;;;;;1539137;75;683;-71
2024/02/12 04:17:39;;;;;;;;;;;17.80;42.70;;;;;;1555664;75;1253;-71
2024/02/12 04:19:42;;;;;;;;;;;17.70;42.70;;;;;;1548986;76;724;-70
2024/02/12 04:21:44;;;;;;;;;;;17.80;42.70;;;;;;1549647;75;756;-70
2024/02/12 04:23:49;;;;;;;;;;;17.70;42.80;;;;;;1535201;76;1198;-71
2024/02/12 04:25:50;;;;;;;;;;;17.80;42.70;;;;;;1547977;76;1931;-71
2024/02/12 04:27:54;;;;;;;;;;;17.70;42.70;;;;;;1552822;74;815;-71
2024/02/12 04:29:57;;;;;;;;;;;17.70;42.70;;;;;;1548806;75;880;-70
2024/02/12 04:31:59;;;;;;;;;;;17.80;42.80;;;;;;1538051;76;621;-71
2024/02/12 04:34:01;;;;;;;;;;;17.80;42.70;;;;;;1549629;75;1153;-71
2024/02/12 04:36:02;;;;;;;;;;;17.80;42.70;;;;;;1552440;75;769;-71
2024/02/12 04:38:06;;;;;;;;;;;17.70;42.80;;;;;;1541476;74;663;-70
2024/02/12 04:40:08;;;;;;;;;;;17.80;42.70;;;;;;1553259;75;805;-71
2024/02/12 04:42:10;;;;;;;;;;;17.70;42.70;;;;;;1551000;76;639;-71
2024/02/12 04:44:12;;;;;;;;;;;17.70;42.70;;;;;;1554208;76;1149;-71
2024/02/12 04:46:14;;;;;;;;;;;17.80;42.70;;;;;;1551256;75;1931;-70
2024/02/12 04:48:15;;;;;;;;;;;17.80;42.70;;;;;;1550312;76;723;-71
2024/02/12 04:50:17;;;;;;;;;;;17.80;42.70;;;;;;1542836;75;764;-72
2024/02/12 04:52:20;;;;;;;;;;;17.70;42.70;;;;;;1549403;76;709;-70
2024/02/12 04:54:25;;;;;;;;;;;17.80;42.70;;;;;;1545922;75;1134;-71
2024/02/12 04:56:27;;;;;;;;;;;17.70;42.70;;;;;;1552761;75;690;-71
2024/02/12 04:58:29;;;;;;;;;;;17.80;42.70;;;;;;1549626;76;753;-71
2024/02/12 05:00:31;;;;;;;;;;;17.70;42.70;;;;;;1539305;74;783;-70
2024/02/12 05:02:33;;;;;;;;;;;17.70;42.70;;;;;;1556901;76;682;-70
2024/02/12 05:04:35;;;;;;;;;;;17.70;42.80;;;;;;1545758;76;1103;-71
2024/02/12 05:06:37;;;;;;;;;;;17.70;42.70;;;;;;1547802;76;1901;-69
2024/02/12 05:08:39;;;;;;;;;;;17.80;42.80;;;;;;1551640;75;1398;-71
2024/02/12 05:10:42;;;;;;;;;;;17.70;42.70;;;;;;1544878;75;828;-70
2024/02/12 05:12:44;;;;;;;;;;;17.80;42.70;;;;;;1549989;76;734;-71
2024/02/12 05:14:46;;;;;;;;;;;17.70;42.70;;;;;;1551831;75;760;-71
2024/02/12 05:16:48;;;;;;;;;;;17.70;42.70;;;;;;1554347;76;755;-70
2024/02/12 05:23:00;;;;;;;;;;;17.70;42.80;;;;;;1487830;76;1138;-71
2024/02/12 05:25:03;;;;;;;;;;;17.70;42.70;;;;;;1557725;75;727;-71
2024/02/12 05:27:05;;;;;;;;;;;17.70;42.80;;;;;;1540958;75;1917;-69
2024/02/12 05:29:07;;;;;;;;;;;17.70;42.70;;;;;;1536608;75;680;-70
2024/02/12 05:31:09;;;;;;;;;;;17.70;42.70;;;;;;1544468;76;767;-70
2024/02/12 05:33:11;;;;;;;;;;;17.80;42.70;;;;;;1547147;76;1143;-71
2024/02/12 05:35:13;;;;;;;;;;;17.80;42.70;;;;;;1547459;76;791;-71
2024/02/12 05:37:15;;;;;;;;;;;17.70;42.70;;;;;;1550426;75;807;-71
2024/02/12 05:39:19;;;;;;;;;;;17.70;42.80;;;;;;1550405;76;685;-70
2024/02/12 05:41:21;;;;;;;;;;;17.80;42.70;;;;;;1538261;75;701;-71
2024/02/12 05:43:22;;;;;;;;;;;17.70;42.70;;;;;;1555959;75;1189;-70
2024/02/12 05:45:24;;;;;;;;;;;17.80;42.70;;;;;;1541429;75;742;-71
2024/02/12 05:47:26;;;;;;;;;;;17.80;42.70;;;;;;1502947;77;1937;-71
2024/02/12 05:49:30;;;;;;;;;;;17.70;42.70;;;;;;1511740;77;802;-71
2024/02/12 05:51:32;;;;;;;;;;;17.70;42.70;;;;;;1506733;77;1619;-71
2024/02/12 05:53:34;;;;;;;;;;;17.80;42.80;;;;;;1511392;77;1135;-71
2024/02/12 05:55:43;;;;;;;;;;;17.70;42.70;;;;;;1506194;77;697;-71
2024/02/12 05:57:42;;;;;;;;;;;17.70;42.80;;;;;;1496342;77;1663;-71
2024/02/12 05:59:44;;;;;;;;;;;17.70;42.80;;;;;;1507558;77;750;-70
2024/02/12 06:01:46;;;;;;;;;;;17.70;42.80;;;;;;1508142;77;665;-70
2024/02/12 06:03:48;;;;;;;;;;;17.70;42.70;;;;;;1511374;77;1122;-71
2024/02/12 06:05:50;;;;;;;;;;;17.70;42.70;;;;;;1520938;77;671;-71
2024/02/12 06:07:52;;;;;;;;;;;17.70;42.70;;;;;;1505324;77;1953;-71
2024/02/12 06:09:54;;;;;;;;;;;17.70;42.70;;;;;;1502024;77;721;-70
2024/02/12 06:11:56;;;;;;;;;;;17.70;42.70;;;;;;1498611;77;675;-71
2024/02/12 06:13:58;;;;;;;;;;;17.80;42.80;;;;;;1502829;77;1248;-71
2024/02/12 06:16:00;;;;;;;;;;;17.80;42.70;;;;;;1514313;77;675;-70
2024/02/12 06:18:02;;;;;;;;;;;17.70;42.70;;;;;;1496230;77;675;-70
2024/02/12 06:20:08;;;;;;;;;;;17.70;42.70;;;;;;1506758;77;672;-70
2024/02/12 06:22:09;;;;;;;;;;;17.80;42.80;;;;;;1507560;78;795;-71
2024/02/12 06:24:11;;;;;;;;;;;17.70;42.70;;;;;;1509714;77;2035;-70
2024/02/12 06:26:19;;;;;;;;;;;17.80;42.70;;;;;;1505948;77;1907;-70
2024/02/12 06:28:20;;;;;;;;;;;17.70;42.70;;;;;;1508167;77;1180;-71
2024/02/12 06:30:22;;;;;;;;;;;17.70;42.70;;;;;;1503359;77;629;-70
2024/02/12 06:32:24;;;;;;;;;;;17.70;42.70;;;;;;1509580;77;732;-71
2024/02/12 06:34:26;;;;;;;;;;;17.70;42.70;;;;;;1506724;77;1135;-70
2024/02/12 06:36:27;;;;;;;;;;;17.80;42.70;;;;;;1511561;77;727;-70
2024/02/12 06:38:29;;;;;;;;;;;17.80;42.70;;;;;;1508608;78;795;-71
2024/02/12 06:40:31;;;;;;;;;;;17.70;42.70;;;;;;1511439;77;716;-70
2024/02/12 06:42:33;;;;;;;;;;;17.70;42.70;;;;;;1547297;76;789;-69
2024/02/12 06:44:35;;;;;;;;;;;17.80;42.80;;;;;;1552937;76;1141;-71
2024/02/12 06:46:37;;;;;;;;;;;17.70;42.80;;;;;;1548499;75;1929;-71
2024/02/12 06:48:40;;;;;;;;;;;17.80;42.70;;;;;;1550704;75;649;-71
2024/02/12 06:50:42;;;;;;;;;;;17.70;42.70;;;;;;1543429;76;736;-69
2024/02/12 06:52:44;;;;;;;;;;;17.70;42.70;;;;;;1552143;75;687;-70
2024/02/12 06:54:47;;;;;;;;;;;17.80;42.70;;;;;;1540607;75;825;-69
2024/02/12 06:56:50;;;;;;;;;;;17.70;42.70;;;;;;1547173;76;662;-70
2024/02/12 06:58:52;;;;;;;;;;;18.00;42.80;;;;;;1545504;76;751;-70
2024/02/12 07:00:56;;;;;;;;;;;17.80;42.70;;;;;;1545998;74;684;-71
2024/02/12 07:02:59;;;;;;;;;;;17.80;42.70;;;;;;1542923;76;1106;-71
2024/02/12 07:05:04;;;;;;;;;;;17.70;42.70;;;;;;1547545;76;713;-70
2024/02/12 07:07:06;;;;;;;;;;;17.70;42.70;;;;;;1550028;76;1915;-71
2024/02/12 07:09:08;;;;;;;;;;;17.70;42.70;;;;;;1543170;76;687;-70
2024/02/12 07:11:15;;;;;;;;;;;17.70;42.70;;;;;;1539851;75;697;-70
2024/02/12 07:13:16;;;;;;;;;;;17.70;42.70;;;;;;1550025;75;1153;-71
2024/02/12 07:15:18;;;;;;;;;;;17.70;42.70;;;;;;1537355;76;728;-69
2024/02/12 07:17:21;;;;;;;;;;;17.70;42.70;;;;;;1550336;75;656;-69
2024/02/12 07:19:23;;;;;;;;;;;17.80;42.70;;;;;;1541734;75;646;-71
2024/02/12 07:21:25;;;;;;;;;;;17.80;42.70;;;;;;1547921;76;733;-70
2024/02/12 07:23:27;;;;;;;;;;;17.80;42.70;;;;;;1551891;76;1217;-70
2024/02/12 07:25:29;;;;;;;;;;;17.70;42.70;;;;;;1550658;75;688;-71
2024/02/12 07:27:31;;;;;;;;;;;17.70;42.70;;;;;;1545733;75;1934;-70
2024/02/12 07:29:33;;;;;;;;;;;17.80;42.70;;;;;;1546732;75;795;-70
2024/02/12 07:31:35;;;;;;;;;;;17.70;42.70;;;;;;1542766;75;647;-71
2024/02/12 07:33:37;;;;;;;;;;;17.80;42.70;;;;;;1546835;75;1143;-71
2024/02/12 07:35:39;;;;;;;;;;;17.70;42.70;;;;;;1546993;76;809;-71
2024/02/12 07:37:46;;;;;;;;;;;17.70;42.70;;;;;;1546874;75;798;-71
2024/02/12 07:39:44;;;;;;;;;;;17.70;42.70;;;;;;1551120;76;979;-70
2024/02/12 07:41:47;;;;;;;;;;;17.70;42.70;;;;;;1545589;76;589;-71
2024/02/12 07:43:50;;;;;;;;;;;17.70;42.70;;;;;;1544383;75;1212;-70
2024/02/12 07:45:55;;;;;;;;;;;17.70;42.70;;;;;;1539878;76;682;-71
2024/02/12 07:47:57;;;;;;;;;;;17.70;42.70;;;;;;1542774;75;1921;-70
2024/02/12 07:49:59;;;;;;;;;;;17.70;42.80;;;;;;1541994;76;747;-70
2024/02/12 07:52:01;;;;;;;;;;;17.70;42.80;;;;;;1551988;75;693;-71
2024/02/12 07:54:05;;;;;;;;;;;17.80;42.80;;;;;;1545501;76;1222;-70
2024/02/12 07:56:07;;;;;;;;;;;17.80;42.70;;;;;;1551306;75;696;-69
2024/02/12 07:58:09;;;;;;;;;;;17.80;42.80;;;;;;1545279;75;756;-71
2024/02/12 08:00:14;;;;;;;;;;;17.70;42.70;;;;;;1542453;75;675;-70
2024/02/12 08:02:15;;;;;;;;;;;17.70;42.70;;;;;;1543684;76;1130;-71
2024/02/12 08:04:17;;;;;;;;;;;17.70;42.70;;;;;;1544648;76;1093;-71
2024/02/12 08:06:19;;;;;;;;;;;17.80;42.70;;;;;;1559085;75;718;-68
2024/02/12 08:08:20;;;;;;;;;;;17.70;42.70;;;;;;1540278;76;1933;-70
2024/02/12 08:10:22;;;;;;;;;;;17.70;42.80;;;;;;1542076;76;744;-70
2024/02/12 08:12:24;;;;;;;;;;;17.70;42.70;;;;;;1552294;76;620;-71
2024/02/12 08:14:26;;;;;;;;;;;17.70;42.70;;;;;;1542268;75;1169;-70
2024/02/12 08:16:28;;;;;;;;;;;17.70;42.70;;;;;;1541852;75;683;-71
2024/02/12 08:18:30;;;;;;;;;;;17.80;42.70;;;;;;1552971;75;635;-70
2024/02/12 08:20:33;;;;;;;;;;;17.70;42.70;;;;;;1544288;76;732;-71
2024/02/12 08:22:34;;;;;;;;;;;17.70;42.80;;;;;;1545229;76;534;-70
2024/02/12 08:24:36;;;;;;;;;;;17.70;42.70;;;;;;1543115;75;1135;-70
2024/02/12 08:26:40;;;;;;;;;;;17.70;42.70;;;;;;1550495;75;596;-71
2024/02/12 08:28:42;;;;;;;;;;;17.70;42.70;;;;;;1548822;76;1913;-69
2024/02/12 08:30:44;;;;;;;;;;;17.70;42.70;;;;;;1545234;76;770;-70
2024/02/12 08:32:46;;;;;;;;;;;17.70;42.70;;;;;;1547547;75;748;-71
2024/02/12 08:34:48;;;;;;;;;;;17.70;42.80;;;;;;1552248;75;702;-70
2024/02/12 08:36:50;;;;;;;;;;;17.70;42.70;;;;;;1553478;76;690;-69
2024/02/12 08:38:52;;;;;;;;;;;17.70;42.70;;;;;;1546932;76;825;-70
2024/02/12 08:40:55;;;;;;;;;;;17.70;42.70;;;;;;1544310;76;725;-70
2024/02/12 08:42:58;;;;;;;;;;;17.70;42.70;;;;;;1552041;75;1181;-71
2024/02/12 08:45:00;;;;;;;;;;;17.70;42.70;;;;;;1556428;76;720;-69
2024/02/12 08:47:02;;;;;;;;;;;17.80;42.80;;;;;;1549247;76;1912;-70
2024/02/12 08:49:04;;;;;;;;;;;17.70;42.70;;;;;;1534645;76;849;-70
2024/02/12 08:51:08;;;;;;;;;;;17.70;42.70;;;;;;1545025;76;699;-71
2024/02/12 08:53:10;;;;;;;;;;;17.70;42.70;;;;;;1543292;75;1150;-71
2024/02/12 08:55:15;;;;;;;;;;;17.80;42.80;;;;;;1551679;76;690;-71
2024/02/12 08:57:17;;;;;;;;;;;17.70;42.80;;;;;;1558067;75;648;-69
2024/02/12 08:59:20;;;;;;;;;;;17.70;42.70;;;;;;1544877;76;738;-71
2024/02/12 09:01:23;;;;;;;;;;;17.70;42.80;;;;;;1547965;76;851;-70
2024/02/12 09:03:25;;;;;;;;;;;17.70;42.80;;;;;;1546248;75;1170;-70
2024/02/12 09:05:29;;;;;;;;;;;17.80;42.70;;;;;;1562270;74;782;-70
2024/02/12 09:07:31;;;;;;;;;;;17.70;42.70;;;;;;1543813;74;1930;-71
2024/02/12 09:09:33;;;;;;;;;;;17.80;42.70;;;;;;1548668;76;767;-71
2024/02/12 09:11:35;;;;;;;;;;;17.70;42.70;;;;;;1545589;76;680;-70
2024/02/12 09:13:37;;;;;;;;;;;17.70;42.70;;;;;;1544513;76;1151;-69
2024/02/12 09:15:39;;;;;;;;;;;17.70;42.80;;;;;;1551196;75;833;-71
2024/02/12 09:17:41;;;;;;;;;;;17.80;42.70;;;;;;1549637;75;719;-69
2024/02/12 09:19:44;;;;;;;;;;;17.70;42.70;;;;;;1537549;75;756;-70
2024/02/12 09:21:47;;;;;;;;;;;17.70;42.70;;;;;;1546128;75;717;-70
2024/02/12 09:23:48;;;;;;;;;;;17.70;42.80;;;;;;1550721;76;1165;-69
2024/02/12 09:25:51;;;;;;;;;;;17.70;42.80;;;;;;1548224;76;700;-70
2024/02/12 09:27:53;;;;;;;;;;;17.70;42.80;;;;;;1552542;75;1903;-69
2024/02/12 09:29:55;;;;;;;;;;;17.70;42.80;;;;;;1555526;75;722;-71
2024/02/12 09:31:57;;;;;;;;;;;17.70;42.80;;;;;;1548856;75;675;-71
2024/02/12 09:34:02;;;;;;;;;;;17.70;42.70;;;;;;1551695;76;1185;-72
2024/02/12 09:36:02;;;;;;;;;;;17.70;42.80;;;;;;1544780;75;1612;-71
2024/02/12 09:38:04;;;;;;;;;;;17.70;42.80;;;;;;1548971;75;720;-71
2024/02/12 09:40:07;;;;;;;;;;;17.70;42.80;;;;;;1545365;76;803;-69
2024/02/12 09:42:09;;;;;;;;;;;17.70;42.80;;;;;;1546979;76;780;-70
2024/02/12 09:44:11;;;;;;;;;;;17.80;42.70;;;;;;1553988;75;1169;-72
2024/02/12 09:46:14;;;;;;;;;;;17.80;42.80;;;;;;1547087;76;648;-70
2024/02/12 09:48:16;;;;;;;;;;;17.70;42.80;;;;;;1548894;75;1948;-70
2024/02/12 09:50:18;;;;;;;;;;;17.70;42.80;;;;;;1545485;76;812;-69
2024/02/12 09:52:20;;;;;;;;;;;17.70;42.80;;;;;;1542179;76;678;-70
2024/02/12 09:54:21;;;;;;;;;;;17.70;42.80;;;;;;1555564;75;1135;-70
2024/02/12 09:56:23;;;;;;;;;;;17.80;42.80;;;;;;1545441;76;638;-70
2024/02/12 09:58:25;;;;;;;;;;;17.70;42.70;;;;;;1544582;76;709;-70
2024/02/12 10:00:29;;;;;;;;;;;17.80;42.80;;;;;;1544336;75;724;-71
2024/02/12 10:02:32;;;;;;;;;;;17.70;42.70;;;;;;1549553;76;586;-71
2024/02/12 10:04:35;;;;;;;;;;;17.80;42.80;;;;;;1552749;75;1133;-70
2024/02/12 10:06:37;;;;;;;;;;;17.70;42.70;;;;;;1553921;75;763;-71
2024/02/12 10:08:39;;;;;;;;;;;17.70;42.70;;;;;;1545485;76;1926;-70
2024/02/12 10:10:41;;;;;;;;;;;17.70;42.80;;;;;;1544456;76;753;-70
2024/02/12 10:12:43;;;;;;;;;;;17.70;42.70;;;;;;1558778;75;582;-70
2024/02/12 10:14:45;;;;;;;;;;;17.70;42.70;;;;;;1541450;76;1298;-70
2024/02/12 10:16:47;;;;;;;;;;;17.70;42.80;;;;;;1548387;76;712;-71
2024/02/12 10:18:48;;;;;;;;;;;17.70;42.80;;;;;;1541288;75;787;-69
2024/02/12 10:20:50;;;;;;;;;;;17.70;42.70;;;;;;1543794;75;724;-71
2024/02/12 10:22:52;;;;;;;;;;;17.70;42.70;;;;;;1554243;75;1142;-71
2024/02/12 10:24:55;;;;;;;;;;;17.80;42.80;;;;;;1551374;76;602;-72
2024/02/12 10:26:57;;;;;;;;;;;17.80;42.80;;;;;;1512208;77;748;-71
2024/02/12 10:28:59;;;;;;;;;;;17.80;42.80;;;;;;1544531;76;1915;-71
2024/02/12 10:31:01;;;;;;;;;;;17.70;42.80;;;;;;1553799;76;639;-71
2024/02/12 10:33:06;;;;;;;;;;;17.80;42.80;;;;;;1550687;75;1136;-70
2024/02/12 10:35:08;;;;;;;;;;;17.80;42.80;;;;;;1544630;76;709;-70
2024/02/12 10:37:10;;;;;;;;;;;17.70;42.70;;;;;;1543462;75;755;-71
2024/02/12 10:39:17;;;;;;;;;;;17.80;42.70;;;;;;1544776;76;769;-71
2024/02/12 10:41:17;;;;;;;;;;;17.80;42.70;;;;;;1547983;76;1123;-71
2024/02/12 10:43:20;;;;;;;;;;;17.80;42.70;;;;;;1551092;75;1691;-71
2024/02/12 10:45:22;;;;;;;;;;;17.80;42.80;;;;;;1543992;76;717;-69
2024/02/12 10:47:25;;;;;;;;;;;17.70;42.80;;;;;;1550391;76;685;-71
2024/02/12 10:49:27;;;;;;;;;;;17.70;42.80;;;;;;1543098;76;1902;-71
2024/02/12 10:51:29;;;;;;;;;;;17.80;42.80;;;;;;1545792;75;738;-71
2024/02/12 10:53:31;;;;;;;;;;;17.80;42.80;;;;;;1548267;75;1146;-70
2024/02/12 10:55:34;;;;;;;;;;;17.70;42.80;;;;;;1544132;76;712;-71
2024/02/12 10:57:37;;;;;;;;;;;17.80;42.80;;;;;;1558787;75;704;-71
2024/02/12 10:59:39;;;;;;;;;;;17.80;42.70;;;;;;1549502;75;1036;-71
2024/02/12 11:01:43;;;;;;;;;;;17.80;42.80;;;;;;1544892;75;699;-71
2024/02/12 11:03:47;;;;;;;;;;;17.70;42.80;;;;;;1544410;75;1100;-69
2024/02/12 11:05:50;;;;;;;;;;;17.70;42.80;;;;;;1557360;75;788;-69
2024/02/12 11:08:03;;;;;;;;;;;17.80;42.80;;;;;;1552112;75;1922;-69
2024/02/12 11:10:09;;;;;;;;;;;17.70;42.80;;;;;;1527927;76;1548;-71
2024/02/12 11:12:12;;;;;;;;;;;17.70;42.80;;;;;;1543573;76;633;-71
2024/02/12 11:14:15;;;;;;;;;;;17.70;42.70;;;;;;1543447;76;1143;-71
2024/02/12 11:16:18;;;;;;;;;;;17.80;42.80;;;;;;1549117;75;637;-71
2024/02/12 11:18:22;;;;;;;;;;;17.70;42.80;;;;;;1544948;76;796;-70
2024/02/12 11:20:25;;;;;;;;;;;17.70;42.80;;;;;;1542194;75;928;-71
2024/02/12 11:22:28;;;;;;;;;;;17.70;42.80;;;;;;1545217;76;682;-71
2024/02/12 11:24:31;;;;;;;;;;;17.70;42.80;;;;;;1553459;75;1137;-70
2024/02/12 11:26:35;;;;;;;;;;;17.70;42.80;;;;;;1551138;75;921;-71
2024/02/12 11:28:38;;;;;;;;;;;17.70;42.70;;;;;;1544104;75;1897;-71
2024/02/12 11:30:41;;;;;;;;;;;17.80;42.80;;;;;;1543683;75;761;-71
2024/02/12 11:32:44;;;;;;;;;;;17.80;42.80;;;;;;1536109;75;639;-70
2024/02/12 11:34:46;;;;;;;;;;;17.70;42.80;;;;;;1549942;75;1441;-69
2024/02/12 11:36:58;;;;;;;;;;;17.70;42.80;;;;;;1555531;75;699;-70
2024/02/12 11:39:00;;;;;;;;;;;17.70;42.80;;;;;;1550838;76;730;-71
2024/02/12 11:41:04;;;;;;;;;;;17.70;42.80;;;;;;1541387;76;796;-69
2024/02/12 11:43:05;;;;;;;;;;;17.70;42.80;;;;;;1546371;75;1600;-70
2024/02/12 11:45:07;;;;;;;;;;;17.70;42.70;;;;;;1550148;76;690;-70
2024/02/12 11:47:09;;;;;;;;;;;17.70;42.70;;;;;;1553191;75;916;-70
2024/02/12 11:49:11;;;;;;;;;;;17.80;42.80;;;;;;1536528;75;1933;-71
2024/02/12 11:51:14;;;;;;;;;;;17.70;42.80;;;;;;1543736;75;649;-69
2024/02/12 11:53:16;;;;;;;;;;;17.80;42.70;;;;;;1551035;75;1160;-72
2024/02/12 11:55:18;;;;;;;;;;;17.80;42.80;;;;;;1549040;76;669;-71
2024/02/12 11:57:24;;;;;;;;;;;17.80;42.80;;;;;;1551682;75;798;-69
2024/02/12 11:59:24;;;;;;;;;;;17.70;42.80;;;;;;1543417;75;1418;-70
2024/02/12 12:01:27;;;;;;;;;;;17.70;42.80;;;;;;1547391;75;721;-70
2024/02/12 12:03:29;;;;;;;;;;;17.70;42.80;;;;;;1553278;75;1142;-69
2024/02/12 12:05:30;;;;;;;;;;;17.70;42.70;;;;;;1555401;75;760;-71
2024/02/12 12:07:32;;;;;;;;;;;17.70;42.70;;;;;;1549571;75;1354;-70
2024/02/12 12:09:34;;;;;;;;;;;17.70;42.80;;;;;;1549927;75;1947;-70
2024/02/12 12:11:39;;;;;;;;;;;17.70;42.70;;;;;;1544226;76;650;-71
2024/02/12 12:13:41;;;;;;;;;;;17.70;42.80;;;;;;1545708;75;1103;-69
2024/02/12 12:15:43;;;;;;;;;;;17.70;42.80;;;;;;1550080;76;696;-71
2024/02/12 12:17:46;;;;;;;;;;;17.70;42.80;;;;;;1551154;75;750;-71
2024/02/12 12:19:48;;;;;;;;;;;17.70;42.80;;;;;;1550736;76;724;-70
2024/02/12 12:21:50;;;;;;;;;;;17.80;42.80;;;;;;1545668;76;684;-70
2024/02/12 12:23:52;;;;;;;;;;;17.70;42.70;;;;;;1549718;76;1163;-71
2024/02/12 12:25:56;;;;;;;;;;;17.70;42.70;;;;;;1549838;76;607;-71